M/T Arcadia — SY7849 — position and weather

sailwx.info

Track history (hours):
 
Tides and Currents Weather Stations Pressure Air Temp Water Temp Dewpoint Dewpoint Depression Visibility Wind Speed Wind Dir Waves Ship Positions

M/T Arcadia

Last reported at 2016-Feb-03 21:19 UTC. Time now 2016-Feb-06 13:37 UTC.
Position N 37°19' E 023°21'.

Length 76 m; draft 4.7 m.

Type: Tanker. MMSI: 240560000.

Date/timePositionNaut miles runAvg speedWind from/ knotsBaromVisibWave heightAir tempDewpointWater temp
2016-Feb-03 21:19N 37°19' E 023°21'9 8.2
2016-Feb-03 20:11N 37°24' E 023°31'5 7.4
2016-Feb-03 19:34N 37°28' E 023°34'8 7.7
2016-Feb-03 18:34N 37°35' E 023°29'8 7.5
2016-Feb-03 17:32N 37°40' E 023°21'7 7.6
2016-Feb-03 16:34N 37°45' E 023°15'8 7.8
2016-Feb-03 15:33N 37°52' E 023°09'4 0.2
2016-Feb-02 14:21N 37°55' E 023°06'0 0.0
2016-Feb-02 13:28N 37°55' E 023°06'0 0.0
2016-Feb-02 12:32N 37°55' E 023°06'6 6.2
2016-Feb-02 11:33N 37°50' E 023°11'9 8.5
2016-Feb-02 10:33N 37°43' E 023°17'7 6.9
2016-Feb-02 09:30N 37°39' E 023°25'8 8.1
2016-Feb-02 08:33N 37°36' E 023°34'8 8.2
2016-Feb-02 07:34N 37°28' E 023°37'8 8.4
2016-Feb-02 06:33N 37°20' E 023°39'14 0.3
2016-Jan-31 04:22N 37°08' E 023°29'23 7.9
2016-Jan-31 01:28N 37°31' E 023°35'7 7.8
2016-Jan-31 00:32N 37°37' E 023°31'8 8.1
2016-Jan-30 23:33N 37°39' E 023°21'8 7.6
2016-Jan-30 22:33N 37°45' E 023°15'9 8.0
2016-Jan-30 21:29N 37°52' E 023°09'4 0.1
2016-Jan-29 19:18N 37°55' E 023°06'0 0.0
2016-Jan-29 17:15N 37°55' E 023°06'0 0.0
2016-Jan-29 14:15N 37°55' E 023°06'0 0.3
2016-Jan-29 13:28N 37°55' E 023°06'7 7.5
2016-Jan-29 12:32N 37°49' E 023°12'8 7.9
2016-Jan-29 11:34N 37°43' E 023°17'7 7.4
2016-Jan-29 10:33N 37°39' E 023°25'8 7.7
2016-Jan-29 09:33N 37°35' E 023°34'8 8.0
2016-Jan-29 08:34N 37°27' E 023°36'  
2016-Jan-27 03:05N 37°21' E 023°24'12 6.9
2016-Jan-27 01:20N 37°31' E 023°33'6 8.0
2016-Jan-27 00:32N 37°36' E 023°28'7 7.2
2016-Jan-26 23:33N 37°40' E 023°20'7 7.3
2016-Jan-26 22:33N 37°45' E 023°14'8 7.6
2016-Jan-26 21:33N 37°52' E 023°09'4 0.1
2016-Jan-25 12:30N 37°55' E 023°06'1 1.1
2016-Jan-25 11:33N 37°54' E 023°06'8 8.1
2016-Jan-25 10:33N 37°48' E 023°13'8 7.9
2016-Jan-25 09:33N 37°41' E 023°18'8 8.1
2016-Jan-25 08:33N 37°37' E 023°27'8 7.6
2016-Jan-25 07:33N 37°31' E 023°33'  
Track history (hours):
 
Tides and Currents Weather Stations Pressure Air Temp Water Temp Dewpoint Dewpoint Depression Visibility Wind Speed Wind Dir Waves Ship Positions

M/T Arcadia

Last reported at 2016-Feb-03 21:19 UTC. Time now 2016-Feb-06 13:37 UTC.
Position N 37°19' E 023°21'.

Length 76 m; draft 4.7 m.

Type: Tanker. MMSI: 240560000.

Date/timePositionNaut miles runAvg speedWind from/ knotsBaromVisibWave heightAir tempDewpointWater temp
2016-Feb-03 21:19N 37°19' E 023°21'9 8.2
2016-Feb-03 20:11N 37°24' E 023°31'5 7.4
2016-Feb-03 19:34N 37°28' E 023°34'8 7.7
2016-Feb-03 18:34N 37°35' E 023°29'8 7.5
2016-Feb-03 17:32N 37°40' E 023°21'7 7.6
2016-Feb-03 16:34N 37°45' E 023°15'8 7.8
2016-Feb-03 15:33N 37°52' E 023°09'4 0.2
2016-Feb-02 14:21N 37°55' E 023°06'0 0.0
2016-Feb-02 13:28N 37°55' E 023°06'0 0.0
2016-Feb-02 12:32N 37°55' E 023°06'6 6.2
2016-Feb-02 11:33N 37°50' E 023°11'9 8.5
2016-Feb-02 10:33N 37°43' E 023°17'7 6.9
2016-Feb-02 09:30N 37°39' E 023°25'8 8.1
2016-Feb-02 08:33N 37°36' E 023°34'8 8.2
2016-Feb-02 07:34N 37°28' E 023°37'8 8.4
2016-Feb-02 06:33N 37°20' E 023°39'14 0.3
2016-Jan-31 04:22N 37°08' E 023°29'23 7.9
2016-Jan-31 01:28N 37°31' E 023°35'7 7.8
2016-Jan-31 00:32N 37°37' E 023°31'8 8.1
2016-Jan-30 23:33N 37°39' E 023°21'8 7.6
2016-Jan-30 22:33N 37°45' E 023°15'9 8.0
2016-Jan-30 21:29N 37°52' E 023°09'4 0.1
2016-Jan-29 19:18N 37°55' E 023°06'0 0.0
2016-Jan-29 17:15N 37°55' E 023°06'0 0.0
2016-Jan-29 14:15N 37°55' E 023°06'0 0.3
2016-Jan-29 13:28N 37°55' E 023°06'7 7.5
2016-Jan-29 12:32N 37°49' E 023°12'8 7.9
2016-Jan-29 11:34N 37°43' E 023°17'7 7.4
2016-Jan-29 10:33N 37°39' E 023°25'8 7.7
2016-Jan-29 09:33N 37°35' E 023°34'8 8.0
2016-Jan-29 08:34N 37°27' E 023°36'  
2016-Jan-27 03:05N 37°21' E 023°24'12 6.9
2016-Jan-27 01:20N 37°31' E 023°33'6 8.0
2016-Jan-27 00:32N 37°36' E 023°28'7 7.2
2016-Jan-26 23:33N 37°40' E 023°20'7 7.3
2016-Jan-26 22:33N 37°45' E 023°14'8 7.6
2016-Jan-26 21:33N 37°52' E 023°09'4 0.1
2016-Jan-25 12:30N 37°55' E 023°06'1 1.1
2016-Jan-25 11:33N 37°54' E 023°06'8 8.1
2016-Jan-25 10:33N 37°48' E 023°13'8 7.9
2016-Jan-25 09:33N 37°41' E 023°18'8 8.1
2016-Jan-25 08:33N 37°37' E 023°27'8 7.6
2016-Jan-25 07:33N 37°31' E 023°33'  

Dump ship's entire track history